METAR Reports From Nearby Airports

 

KLUD - Decatur, Texas, USA
Distance from Wildwood: ESE 5mi, 8km
Updated: Jul 18, 2019 2:35pm
Clear
Clear
 Wind from S
Wind: S 15 mph , 24 km/h, Gust: 20 mph , 31 km/h
Temperature: 93°F , 34°C
Heat Index: 97°F , 36°C
Dew Point: 68°F , 20°C
Humidity: 44%
Barometer: 29.94 inHg , 1013.9 hPa
Clouds: Clear
Visibility: 7 miles , 11 km
2019/07/18 19:35 KLUD 181935Z AUTO 18013G17KT 7SM CLR 34/20 A2994 RMK AO2 T03400196
KXBP - Bridgeport, Texas, USA
Distance from Wildwood: WSW 11mi, 18km
Updated: Jul 18, 2019 2:35pm
Clear
Clear
 Wind from S
Wind: S 14 mph , 22 km/h, Gust: 22 mph , 35 km/h
Temperature: 93°F , 34°C
Heat Index: 96°F , 36°C
Dew Point: 66°F , 19°C
Humidity: 41%
Barometer: 29.95 inHg , 1014.2 hPa
Clouds: Clear
Visibility: 10 miles , 16 km
2019/07/18 19:35 KXBP 181935Z AUTO 19012G19KT 10SM CLR 34/19 A2995 RMK AO2 T03430193
 
K0F2 - Bowie, Texas, USA
Distance from Wildwood: NNW 24mi, 39km
Updated: Jul 18, 2019 2:35pm
Clear
Clear
 Wind from S
Wind: S 13 mph , 20 km/h, Gust: 22 mph , 35 km/h
Temperature: 95°F , 35°C
Heat Index: 101°F , 38°C
Dew Point: 70°F , 21°C
Humidity: 44%
Barometer: 29.93 inHg , 1013.5 hPa
Clouds: Clear
Visibility: 10 miles , 16 km
2019/07/18 19:35 K0F2 181935Z AUTO 17011G19KT 10SM CLR 35/21 A2993 RMK AO2 T03450211
KDTO - Denton, Texas, USA
Distance from Wildwood: E 27mi, 44km
Updated: Jul 18, 2019 1:53pm
Clear
Clear
 Wind from SSW
Wind: SSW 12 mph , 19 km/h, Gust: 25 mph , 41 km/h
Temperature: 93°F , 34°C
Heat Index: 99°F , 37°C
Dew Point: 70°F , 21°C
Humidity: 47%
Barometer: 29.95 inHg , 1014.2 hPa
Clouds: Clear
Visibility: 10 miles , 16 km
2019/07/18 18:53 KDTO 181853Z 20010G22KT 10SM CLR 34/21 A2995 RMK AO2 SLP132 T03390211
 
KAFW - Ft Worth/Allianc, Texas, USA
Distance from Wildwood: SE 29mi, 46km
Updated: Jul 18, 2019 1:53pm
Few Clouds
Few Clouds
 Wind from S
Wind: S 17 mph , 28 km/h, Gust: 25 mph , 41 km/h
Temperature: 93°F , 34°C
Heat Index: 100°F , 38°C
Dew Point: 72°F , 22°C
Humidity: 49%
Barometer: 29.95 inHg , 1014.2 hPa
Clouds: Few Clouds
Visibility: 10 miles , 16 km
Cloud details: Few Clouds 5000 ft
2019/07/18 18:53 KAFW 181853Z 17015G22KT 10SM FEW050 34/22 A2995 RMK AO2 SLP124 T03390217
KFTW - Fort Worth, Texas, USA
Distance from Wildwood: SSE 34mi, 55km
Updated: Jul 18, 2019 1:53pm
Clear
Clear
 Wind from SSW
Wind: SSW 14 mph , 22 km/h, Gust: 24 mph , 39 km/h
Temperature: 93°F , 34°C
Heat Index: 99°F , 37°C
Dew Point: 70°F , 21°C
Humidity: 47%
Barometer: 29.95 inHg , 1014.2 hPa
Clouds: Clear
Visibility: 10 miles , 16 km
2019/07/18 18:53 KFTW 181853Z 21012G21KT 10SM CLR 34/21 A2995 RMK AO2 SLP130 T03390211
 
KNFW - Fort Worth Nas, Texas, USA
Distance from Wildwood: SSE 36mi, 58km
Updated: Jul 18, 2019 1:52pm
Few Clouds
Few Clouds
 Wind from SSE
Wind: SSE 20 mph , 31 km/h, Gust: 24 mph , 39 km/h
Temperature: 97°F , 36°C
Dew Point: 66°F , 19°C
Humidity: 37%
Barometer: 29.96 inHg , 1014.6 hPa
Clouds: Few Clouds
Visibility: 10 miles , 16 km
Cloud details: Few Clouds 4400 ft
2019/07/18 18:52 KNFW 181852Z 16017G21KT 10SM FEW044 36/19 A2996 RMK AO2 SLP128 T03560194 VISNO N $
KGLE - Gainesville, Texas, USA
Distance from Wildwood: NE 38mi, 61km
Updated: Jul 18, 2019 2:35pm
Clear
Clear
 Wind from S
Wind: S 15 mph , 24 km/h, Gust: 22 mph , 35 km/h
Temperature: 93°F , 34°C
Heat Index: 97°F , 36°C
Dew Point: 68°F , 20°C
Humidity: 44%
Barometer: 29.95 inHg , 1014.2 hPa
Clouds: Clear
Visibility: 10 miles , 16 km
2019/07/18 19:35 KGLE 181935Z AUTO 19013G19KT 10SM CLR 34/20 A2995 RMK AO2 T03400197 PWINO
 
KMWL - Mineral Wells, Texas, USA
Distance from Wildwood: SW 41mi, 65km
Updated: Jul 18, 2019 1:53pm
Clear
Clear
 Wind from S
Wind: S 13 mph , 20 km/h, Gust: 21 mph , 33 km/h
Temperature: 93°F , 34°C
Heat Index: 96°F , 36°C
Dew Point: 66°F , 19°C
Humidity: 41%
Barometer: 29.93 inHg , 1013.5 hPa
Clouds: Clear
Visibility: 10 miles , 16 km
2019/07/18 18:53 KMWL 181853Z AUTO 18011G18KT 10SM CLR 34/19 A2993 RMK AO2 SLP121 T03390194
KDFW - Dallas/Ft Worth, Texas, USA
Distance from Wildwood: ESE 45mi, 73km
Updated: Jul 18, 2019 1:53pm
Few Clouds
Few Clouds
 Wind from S
Wind: S 16 mph , 26 km/h, Gust: 24 mph , 39 km/h
Temperature: 93°F , 34°C
Heat Index: 99°F , 37°C
Dew Point: 70°F , 21°C
Humidity: 47%
Barometer: 29.95 inHg , 1014.2 hPa
Clouds: Few Clouds
Visibility: 10 miles , 16 km
Cloud details: Few Clouds 4500 ft
2019/07/18 18:53 KDFW 181853Z 19014G21KT 10SM FEW045 34/21 A2995 RMK AO2 SLP130 T03440206